Iberville, Canada
Current Conditions -  °F | °C
As of 7:00 PM on Tuesday 25 Nov 2014 (Local Time) from CYHU Reporting Station
Overcast Overcast  
Wind Chill:   Ceiling: 2500
Heat Index:   Visibility: 9mi
Dew Point:   Wind: 23mph
Humidity: 70%   Direction: 230°SW
Pressure: 29.93"   Gusts: 30mph
Location:  45.32°N, 73.23°W
Report Text: CYHU 260000Z AUTO 23020G26KT 9SM BKN025 OVC034 05/M00 A2993 RMK PRESRR SLP134
Loading
Personal Weather Stations






























Interactive Weather Map New forecast layout! Learn more

10-Day Weather Forecast

Advertisements
Track Severe Weather on mobile